Time;durP1;ratioP1;P1;durP2;ratioP2;P2;SDS_P1;SDS_P2;PMS_P1;PMS_P2;Temp;Humidity;BMP_temperature;BMP_pressure;BME280_temperature;BME280_humidity;BME280_pressure;Samples;Min_cycle;Max_cycle;Signal;HPM_P1;HPM_P2
2021/01/24 00:00:36;;;;;;;5.88;2.00;;;32.00;77.20;;;;;;5051255;28;20873;-82
2021/01/24 00:03:03;;;;;;;5.30;1.88;;;32.20;76.90;;;;;;5050729;28;20819;-82
2021/01/24 00:05:30;;;;;;;7.50;1.70;;;32.20;75.60;;;;;;5050647;28;21042;-81
2021/01/24 00:07:58;;;;;;;5.17;2.10;;;32.50;76.00;;;;;;5050869;28;20800;-82
2021/01/24 00:10:25;;;;;;;3.90;1.80;;;32.80;73.70;;;;;;5050617;28;20899;-82
2021/01/24 00:12:55;;;;;;;4.53;1.92;;;33.00;72.40;;;;;;5050835;28;20843;-82
2021/01/24 00:15:22;;;;;;;4.90;1.73;;;32.90;73.20;;;;;;5050670;28;20842;-81
2021/01/24 00:17:49;;;;;;;6.53;2.20;;;33.00;71.50;;;;;;5032816;28;20815;-81
2021/01/24 00:20:17;;;;;;;3.60;1.90;;;33.10;72.20;;;;;;5050456;28;20368;-82
2021/01/24 00:22:44;;;;;;;4.72;2.00;;;33.30;72.50;;;;;;5050655;28;20830;-81
2021/01/24 00:25:12;;;;;;;4.93;1.87;;;34.10;69.70;;;;;;5051071;28;20871;-81
2021/01/24 00:27:39;;;;;;;5.88;2.10;;;35.10;67.70;;;;;;5050612;28;20862;-83
2021/01/24 00:30:08;;;;;;;3.10;1.83;;;35.30;65.80;;;;;;5050533;28;20826;-81
2021/01/24 00:32:35;;;;;;;3.67;1.48;;;35.90;66.70;;;;;;5050798;28;20842;-81
2021/01/24 00:35:05;;;;;;;6.30;1.67;;;36.40;63.00;;;;;;5050720;28;20865;-82
2021/01/24 00:37:32;;;;;;;5.30;2.00;;;36.70;58.40;;;;;;5051890;28;20834;-81
2021/01/24 00:39:59;;;;;;;5.28;2.03;;;36.20;59.40;;;;;;5051066;28;20869;-83
2021/01/24 00:42:27;;;;;;;5.45;1.98;;;36.20;61.40;;;;;;5050983;28;20858;-81
2021/01/24 00:44:54;;;;;;;5.80;1.85;;;36.60;60.10;;;;;;5050892;28;21099;-81
2021/01/24 00:47:22;;;;;;;5.85;2.13;;;37.00;60.90;;;;;;5033771;28;20770;-82
2021/01/24 00:49:49;;;;;;;6.43;1.70;;;37.20;61.80;;;;;;5057743;28;20882;-83
2021/01/24 00:52:16;;;;;;;3.90;1.40;;;37.50;59.30;;;;;;5058697;28;20924;-81
2021/01/24 00:54:44;;;;;;;5.63;1.70;;;37.70;55.40;;;;;;5056897;28;20858;-82
2021/01/24 00:57:14;;;;;;;5.07;1.67;;;37.70;57.60;;;;;;5037355;28;20885;-82
2021/01/24 00:59:41;;;;;;;4.75;2.05;;;37.70;55.00;;;;;;5054516;28;20851;-82
2021/01/24 01:02:09;;;;;;;4.60;1.60;;;37.70;57.20;;;;;;5055253;28;20850;-81
2021/01/24 01:04:36;;;;;;;3.20;1.70;;;37.90;53.10;;;;;;5054539;28;20956;-82
2021/01/24 01:07:03;;;;;;;5.43;1.40;;;37.60;53.90;;;;;;5032867;28;20948;-81
2021/01/24 01:09:31;;;;;;;5.78;1.60;;;37.40;58.80;;;;;;5032826;28;20872;-82
2021/01/24 01:11:58;;;;;;;4.50;1.33;;;37.30;54.80;;;;;;5033754;28;22357;-80
2021/01/24 01:14:26;;;;;;;3.95;1.90;;;37.30;54.60;;;;;;5032653;28;20937;-81
2021/01/24 01:16:53;;;;;;;5.35;1.73;;;37.00;53.50;;;;;;5032833;28;20373;-84
2021/01/24 01:19:20;;;;;;;3.33;1.47;;;37.00;52.70;;;;;;5032772;28;20971;-82
2021/01/24 01:21:47;;;;;;;6.53;1.80;;;36.90;52.30;;;;;;5032565;28;20825;-83
2021/01/24 01:24:18;;;;;;;5.57;1.70;;;36.40;52.60;;;;;;5032702;28;21013;-82
2021/01/24 01:26:45;;;;;;;4.18;1.40;;;35.80;56.80;;;;;;5032754;28;20856;-81
2021/01/24 01:29:13;;;;;;;4.78;1.52;;;35.60;61.50;;;;;;5032772;28;21022;-81
2021/01/24 01:31:40;;;;;;;2.90;1.20;;;35.50;58.60;;;;;;5032378;28;20852;-82
2021/01/24 01:34:07;;;;;;;3.30;1.23;;;35.50;57.90;;;;;;5032744;28;20864;-81
2021/01/24 01:36:35;;;;;;;11.55;1.58;;;35.60;57.60;;;;;;5032559;28;20879;-81
2021/01/24 01:39:02;;;;;;;4.70;1.35;;;35.70;60.00;;;;;;5032168;28;20861;-82
2021/01/24 01:41:31;;;;;;;2.88;1.20;;;35.70;57.00;;;;;;5032265;28;20904;-83
2021/01/24 01:44:01;;;;;;;6.20;1.60;;;35.60;51.80;;;;;;5030743;28;20876;-82
2021/01/24 01:46:29;;;;;;;2.13;1.15;;;35.50;51.10;;;;;;5030821;28;20380;-82
2021/01/24 01:49:06;;;;;;;3.45;1.10;;;35.40;52.10;;;;;;5032235;28;20923;-82
2021/01/24 01:51:36;;;;;;;3.63;1.00;;;35.50;53.90;;;;;;5031048;28;20888;-82
2021/01/24 01:54:05;;;;;;;3.38;0.90;;;35.50;49.70;;;;;;5032140;28;20928;-82
2021/01/24 01:56:38;;;;;;;2.85;1.20;;;35.30;49.90;;;;;;5030492;28;20921;-82
2021/01/24 01:59:05;;;;;;;3.88;1.00;;;35.20;49.90;;;;;;5031908;28;20845;-82
2021/01/24 02:02:06;;;;;;;4.35;1.40;;;35.30;53.30;;;;;;5029983;28;20934;-82
2021/01/24 02:07:44;;;;;;;3.50;1.10;;;35.40;51.50;;;;;;5149326;27;20914;-84
2021/01/24 02:10:34;;;;;;;2.55;1.00;;;35.30;51.30;;;;;;5110292;28;20760;-83
2021/01/24 02:13:40;;;;;;;2.85;1.15;;;35.20;51.00;;;;;;5095273;28;20845;-83
2021/01/24 02:16:08;;;;;;;2.67;1.17;;;35.20;52.40;;;;;;5105589;28;20756;-83
2021/01/24 02:18:44;;;;;;;1.48;0.85;;;35.40;52.80;;;;;;5128920;28;20916;-82
2021/01/24 02:21:21;;;;;;;2.53;0.80;;;35.40;49.00;;;;;;5129295;28;20705;-82
2021/01/24 02:23:51;;;;;;;3.53;1.13;;;35.50;49.20;;;;;;5110213;28;20868;-83
2021/01/24 02:26:30;;;;;;;4.35;1.23;;;35.30;53.00;;;;;;5128901;28;20706;-82
2021/01/24 02:29:17;;;;;;;3.65;1.10;;;35.40;49.50;;;;;;5110674;28;20844;-83
2021/01/24 02:31:46;;;;;;;2.90;1.17;;;35.30;50.80;;;;;;5129095;28;20365;-83
2021/01/24 02:34:16;;;;;;;5.60;1.20;;;35.40;51.10;;;;;;5128490;28;20813;-83
2021/01/24 02:36:45;;;;;;;4.32;1.40;;;35.50;50.60;;;;;;5128388;28;20773;-83
2021/01/24 02:39:13;;;;;;;3.63;1.20;;;35.70;49.40;;;;;;5128309;28;20924;-83
2021/01/24 02:41:41;;;;;;;3.40;1.13;;;35.50;50.20;;;;;;5128366;28;20923;-83
2021/01/24 02:44:09;;;;;;;4.30;1.10;;;35.60;50.10;;;;;;5128207;28;20845;-83
2021/01/24 02:46:37;;;;;;;2.70;0.93;;;35.50;48.40;;;;;;5127767;28;20986;-83
2021/01/24 02:49:05;;;;;;;1.67;0.80;;;35.60;49.80;;;;;;5128041;28;20929;-85
2021/01/24 02:51:34;;;;;;;5.90;1.20;;;35.70;49.30;;;;;;5128656;28;20857;-82
2021/01/24 02:54:03;;;;;;;3.57;0.80;;;35.80;47.40;;;;;;5109578;28;20362;-81
2021/01/24 02:56:33;;;;;;;3.07;0.90;;;35.70;49.30;;;;;;5127276;28;20891;-82
2021/01/24 02:59:03;;;;;;;3.65;1.10;;;35.80;50.90;;;;;;5127948;28;20904;-81
2021/01/24 03:01:31;;;;;;;3.38;1.00;;;36.00;48.50;;;;;;5128162;28;20940;-81
2021/01/24 03:03:58;;;;;;;4.60;1.30;;;36.00;48.70;;;;;;5109472;28;20857;-80
2021/01/24 03:06:29;;;;;;;4.57;1.15;;;35.90;47.00;;;;;;5127741;28;20925;-81
2021/01/24 03:08:59;;;;;;;3.27;1.10;;;35.70;48.30;;;;;;5127676;28;20721;-82
2021/01/24 03:11:29;;;;;;;3.05;1.17;;;35.70;49.10;;;;;;5127750;28;20876;-82
2021/01/24 03:14:07;;;;;;;3.45;1.20;;;35.70;48.40;;;;;;5109396;28;20834;-82
2021/01/24 03:16:41;;;;;;;3.45;1.17;;;35.50;49.10;;;;;;5126367;28;20841;-81
2021/01/24 03:19:11;;;;;;;3.13;1.10;;;35.60;49.30;;;;;;5112961;28;20849;-82
2021/01/24 03:21:39;;;;;;;7.53;1.48;;;35.60;51.20;;;;;;5114243;28;20861;-82
2021/01/24 03:24:08;;;;;;;4.60;1.42;;;35.30;50.50;;;;;;5095547;28;20874;-82
2021/01/24 03:26:35;;;;;;;4.30;1.30;;;35.20;52.70;;;;;;5113804;28;20862;-82
2021/01/24 03:29:03;;;;;;;4.00;1.45;;;35.00;53.50;;;;;;5113734;28;20432;-81
2021/01/24 03:31:33;;;;;;;5.63;1.40;;;34.80;54.80;;;;;;5113508;28;20837;-82
2021/01/24 03:34:02;;;;;;;4.68;1.40;;;34.80;56.40;;;;;;5113753;28;20917;-81
2021/01/24 03:36:29;;;;;;;3.47;1.20;;;34.80;55.90;;;;;;5113519;28;20883;-82
2021/01/24 03:38:56;;;;;;;4.82;1.27;;;35.00;55.80;;;;;;5113445;28;20858;-82
2021/01/24 03:41:24;;;;;;;9.73;1.40;;;34.90;54.10;;;;;;5113483;28;20829;-83
2021/01/24 03:43:51;;;;;;;4.50;1.13;;;35.00;55.20;;;;;;5113548;28;20694;-81
2021/01/24 03:46:18;;;;;;;4.50;1.20;;;35.10;53.20;;;;;;5113370;28;20958;-81
2021/01/24 03:48:45;;;;;;;4.80;1.40;;;35.00;54.30;;;;;;5113577;28;20864;-81
2021/01/24 03:51:12;;;;;;;5.57;1.38;;;34.70;55.10;;;;;;5113721;28;20862;-82
2021/01/24 03:53:42;;;;;;;4.45;1.13;;;34.60;54.80;;;;;;5113344;28;20841;-81
2021/01/24 03:56:13;;;;;;;3.13;1.25;;;34.50;54.00;;;;;;5113064;28;20961;-82
2021/01/24 03:58:40;;;;;;;5.50;1.42;;;34.60;55.90;;;;;;5113048;28;20913;-82
2021/01/24 04:01:08;;;;;;;4.63;1.27;;;34.60;57.10;;;;;;5094732;28;20398;-82
2021/01/24 04:03:35;;;;;;;3.60;1.35;;;34.70;54.60;;;;;;5113307;28;20845;-82
2021/01/24 04:06:02;;;;;;;5.15;1.33;;;34.60;52.70;;;;;;5112691;28;21076;-82
2021/01/24 04:08:29;;;;;;;2.08;1.08;;;34.60;54.90;;;;;;5113121;28;20829;-81
2021/01/24 04:10:57;;;;;;;5.00;1.50;;;34.50;53.30;;;;;;5112888;28;20721;-82
2021/01/24 04:13:24;;;;;;;4.57;1.20;;;34.50;52.80;;;;;;5112947;28;20844;-83
2021/01/24 04:15:52;;;;;;;4.60;1.40;;;34.50;53.10;;;;;;5112924;28;20841;-83
2021/01/24 04:18:20;;;;;;;4.47;1.10;;;34.50;52.80;;;;;;5077660;28;20714;-83
2021/01/24 04:20:47;;;;;;;3.33;1.27;;;34.50;53.40;;;;;;5112934;28;21948;-81
2021/01/24 04:23:14;;;;;;;4.63;1.30;;;34.40;51.20;;;;;;5113106;28;20894;-83
2021/01/24 04:25:42;;;;;;;5.13;1.23;;;34.40;52.30;;;;;;5112789;28;20900;-82
2021/01/24 04:28:10;;;;;;;6.53;1.48;;;34.40;51.70;;;;;;5093832;28;20854;-83
2021/01/24 04:30:37;;;;;;;4.68;1.30;;;34.40;53.70;;;;;;5093507;28;20838;-84
2021/01/24 04:33:07;;;;;;;4.70;1.08;;;34.50;52.40;;;;;;5112642;28;20912;-83
2021/01/24 04:35:35;;;;;;;4.63;1.23;;;34.50;51.30;;;;;;5094382;28;20785;-82
2021/01/24 04:38:02;;;;;;;4.18;1.15;;;34.40;52.90;;;;;;5112505;28;20976;-82
2021/01/24 04:40:30;;;;;;;3.70;1.20;;;34.30;51.90;;;;;;5112559;28;20846;-81
2021/01/24 04:42:57;;;;;;;4.78;1.20;;;34.20;53.10;;;;;;5112281;28;20853;-83
2021/01/24 04:45:24;;;;;;;6.32;1.40;;;34.20;53.20;;;;;;5112235;28;20853;-81
2021/01/24 04:47:53;;;;;;;3.35;1.13;;;34.20;52.60;;;;;;5112430;28;20881;-81
2021/01/24 04:50:20;;;;;;;3.63;1.40;;;33.90;51.90;;;;;;5112437;28;20909;-82
2021/01/24 04:52:48;;;;;;;6.68;1.35;;;33.70;52.70;;;;;;5112659;28;20872;-83
2021/01/24 04:55:17;;;;;;;5.45;1.55;;;33.60;53.50;;;;;;5112080;28;20872;-81
2021/01/24 04:57:46;;;;;;;5.78;1.30;;;33.60;53.80;;;;;;5112106;28;20845;-82
2021/01/24 05:00:14;;;;;;;6.68;1.42;;;33.40;52.30;;;;;;5112089;28;20856;-82
2021/01/24 05:02:42;;;;;;;3.38;1.15;;;33.30;52.70;;;;;;5112003;28;20929;-82
2021/01/24 05:05:10;;;;;;;6.90;1.27;;;33.20;54.30;;;;;;5111558;28;20854;-81
2021/01/24 05:07:38;;;;;;;5.97;1.20;;;33.30;53.60;;;;;;5111865;28;20837;-80
2021/01/24 05:10:06;;;;;;;4.60;1.48;;;33.30;53.50;;;;;;5111857;28;20895;-82
2021/01/24 05:12:33;;;;;;;4.47;1.40;;;33.30;53.80;;;;;;5111634;28;20936;-82
2021/01/24 05:15:07;;;;;;;3.65;1.50;;;33.30;53.00;;;;;;5111907;28;22202;-83
2021/01/24 05:17:34;;;;;;;9.93;1.40;;;33.30;53.00;;;;;;5111749;28;20865;-84
2021/01/24 05:20:01;;;;;;;5.70;1.10;;;33.40;53.30;;;;;;5093472;28;20784;-81
2021/01/24 05:22:30;;;;;;;5.80;1.23;;;33.40;52.70;;;;;;5111969;28;20818;-81
2021/01/24 05:24:58;;;;;;;4.40;1.10;;;33.40;52.00;;;;;;5111582;28;20850;-82
2021/01/24 05:27:26;;;;;;;6.50;1.40;;;33.40;52.60;;;;;;5093075;28;20772;-83
2021/01/24 05:29:54;;;;;;;3.47;1.27;;;33.20;52.70;;;;;;5111534;28;20853;-83
2021/01/24 05:32:21;;;;;;;7.20;1.30;;;33.20;52.60;;;;;;5111904;28;20378;-81
2021/01/24 05:34:50;;;;;;;4.20;1.30;;;33.10;52.30;;;;;;5111472;28;20868;-84
2021/01/24 05:37:18;;;;;;;7.75;1.10;;;33.20;51.50;;;;;;5093144;28;20854;-84
2021/01/24 05:39:45;;;;;;;3.10;1.05;;;33.10;52.20;;;;;;5111404;28;20834;-83
2021/01/24 05:42:13;;;;;;;6.82;1.08;;;33.10;52.00;;;;;;5111317;28;20978;-82
2021/01/24 05:44:47;;;;;;;6.82;1.40;;;33.10;51.80;;;;;;5111101;28;20864;-81
2021/01/24 05:47:14;;;;;;;7.00;1.52;;;33.00;51.20;;;;;;5111171;28;20857;-82
2021/01/24 05:49:45;;;;;;;3.30;1.27;;;32.90;52.70;;;;;;5111233;28;20868;-82
2021/01/24 05:52:19;;;;;;;8.75;1.45;;;32.80;51.60;;;;;;5111611;28;20375;-80
2021/01/24 05:54:47;;;;;;;5.53;1.42;;;32.80;52.60;;;;;;5111301;28;20845;-81
2021/01/24 05:57:16;;;;;;;8.15;1.40;;;32.70;52.60;;;;;;5111097;28;20849;-82
2021/01/24 06:00:00;;;;;;;4.82;1.30;;;32.70;52.80;;;;;;5111120;28;20837;-81
2021/01/24 06:02:28;;;;;;;5.63;1.50;;;32.60;52.40;;;;;;5111376;28;20907;-81
2021/01/24 06:04:56;;;;;;;5.38;1.60;;;32.50;52.80;;;;;;5111291;28;20853;-82
2021/01/24 06:07:24;;;;;;;5.20;1.40;;;32.40;53.60;;;;;;5093375;28;20865;-80
2021/01/24 06:09:52;;;;;;;7.13;1.25;;;32.30;54.60;;;;;;5111523;28;22384;-81
2021/01/24 06:12:24;;;;;;;5.45;1.35;;;32.20;53.10;;;;;;5111282;28;20928;-82
2021/01/24 06:14:52;;;;;;;5.55;1.33;;;32.00;54.40;;;;;;5111106;28;20355;-80
2021/01/24 06:17:38;;;;;;;7.32;1.70;;;31.90;54.20;;;;;;5111411;28;20813;-82
2021/01/24 06:20:07;;;;;;;6.95;1.38;;;31.70;54.80;;;;;;5110985;28;20756;-81
2021/01/24 06:22:43;;;;;;;7.18;1.60;;;31.60;56.10;;;;;;5111941;28;20829;-83
2021/01/24 06:25:27;;;;;;;7.55;1.85;;;31.60;55.50;;;;;;5110973;28;20854;-82
2021/01/24 06:28:08;;;;;;;6.60;1.50;;;31.50;54.60;;;;;;5111454;28;20756;-83
2021/01/24 06:30:36;;;;;;;6.38;1.40;;;31.50;55.30;;;;;;5111094;28;20845;-81
2021/01/24 06:33:23;;;;;;;6.97;1.70;;;31.40;55.10;;;;;;5111003;28;20834;-82
2021/01/24 06:35:59;;;;;;;5.18;1.20;;;31.30;55.60;;;;;;5111114;28;20864;-83
2021/01/24 06:38:33;;;;;;;6.13;1.50;;;31.30;56.00;;;;;;5110988;28;20842;-84
2021/01/24 06:41:03;;;;;;;8.00;1.38;;;31.20;56.60;;;;;;5110666;28;20853;-81
2021/01/24 06:43:46;;;;;;;4.75;1.50;;;31.10;57.20;;;;;;5110713;28;20834;-81
2021/01/24 06:46:22;;;;;;;5.55;1.50;;;31.10;58.20;;;;;;5110668;28;20889;-82
2021/01/24 06:48:51;;;;;;;5.68;1.30;;;31.00;56.20;;;;;;5110727;28;20713;-83
2021/01/24 06:51:38;;;;;;;5.47;1.45;;;30.90;56.60;;;;;;5110769;28;20853;-84
2021/01/24 06:54:07;;;;;;;5.72;1.75;;;30.80;56.30;;;;;;5114558;28;20849;-82
2021/01/24 06:56:46;;;;;;;8.20;1.73;;;30.80;57.10;;;;;;5096390;28;20868;-82
2021/01/24 06:59:14;;;;;;;3.53;1.17;;;30.70;57.60;;;;;;5114387;28;20371;-81
2021/01/24 07:01:43;;;;;;;6.63;1.67;;;30.60;56.60;;;;;;5114623;28;20876;-82
2021/01/24 07:04:30;;;;;;;5.28;1.50;;;30.50;56.30;;;;;;5114303;28;20826;-82
2021/01/24 07:07:21;;;;;;;7.13;1.27;;;30.50;56.50;;;;;;5114127;28;20939;-82
2021/01/24 07:09:49;;;;;;;9.63;1.73;;;30.40;56.90;;;;;;5106359;28;20838;-82
2021/01/24 07:12:16;;;;;;;5.05;1.63;;;30.30;57.00;;;;;;5096099;28;20916;-82
2021/01/24 07:14:44;;;;;;;7.63;1.90;;;30.10;57.10;;;;;;5114473;28;20733;-83
2021/01/24 07:17:18;;;;;;;5.00;1.75;;;30.10;57.10;;;;;;5114255;28;20860;-83
2021/01/24 07:19:53;;;;;;;5.38;1.23;;;30.00;57.70;;;;;;5114094;28;20830;-83
2021/01/24 07:22:25;;;;;;;6.60;1.40;;;29.90;58.20;;;;;;5114340;28;20850;-83
2021/01/24 07:24:54;;;;;;;11.60;2.10;;;29.80;58.30;;;;;;5114664;28;20787;-83
2021/01/24 07:27:24;;;;;;;5.97;1.60;;;29.70;58.70;;;;;;5114374;28;20866;-84
2021/01/24 07:29:51;;;;;;;6.93;1.60;;;29.60;59.80;;;;;;5095901;28;20726;-83
2021/01/24 07:32:24;;;;;;;8.45;2.10;;;29.40;59.60;;;;;;5114884;28;20899;-83
2021/01/24 07:34:55;;;;;;;7.03;1.60;;;29.30;58.80;;;;;;5096100;28;20922;-83
2021/01/24 07:37:22;;;;;;;9.35;1.70;;;29.20;59.10;;;;;;5096270;28;20722;-82
2021/01/24 07:39:52;;;;;;;8.75;1.73;;;29.10;59.70;;;;;;5114395;28;20986;-84
2021/01/24 07:42:20;;;;;;;6.97;1.30;;;29.00;59.30;;;;;;5114408;28;20884;-83
2021/01/24 07:44:47;;;;;;;5.85;1.48;;;29.00;59.60;;;;;;5114213;28;20855;-83
2021/01/24 07:47:15;;;;;;;4.93;1.50;;;28.90;59.10;;;;;;5113990;28;20873;-82
2021/01/24 07:49:43;;;;;;;6.25;1.55;;;28.80;59.30;;;;;;5114440;28;20374;-83
2021/01/24 07:52:11;;;;;;;7.85;1.67;;;28.80;58.70;;;;;;5115397;28;20865;-82
2021/01/24 07:54:39;;;;;;;6.53;1.60;;;28.80;59.00;;;;;;5114761;28;20845;-83
2021/01/24 07:57:08;;;;;;;5.68;1.90;;;28.60;58.20;;;;;;5113940;28;20825;-81
2021/01/24 07:59:36;;;;;;;5.95;1.60;;;28.60;58.60;;;;;;5113307;28;20873;-82
2021/01/24 08:02:04;;;;;;;6.95;1.65;;;28.50;58.30;;;;;;5113411;28;20923;-82
2021/01/24 08:04:36;;;;;;;6.60;1.80;;;28.40;58.30;;;;;;5113097;28;20871;-81
2021/01/24 08:07:09;;;;;;;8.37;1.63;;;28.30;58.30;;;;;;5112890;28;20900;-81
2021/01/24 08:09:37;;;;;;;7.68;1.95;;;28.30;59.40;;;;;;5113167;28;20358;-81
2021/01/24 08:12:12;;;;;;;7.63;1.90;;;28.20;59.00;;;;;;5095221;28;20942;-85
2021/01/24 08:14:40;;;;;;;6.47;1.77;;;28.10;57.50;;;;;;5113193;28;20856;-81
2021/01/24 08:17:14;;;;;;;6.63;1.63;;;28.10;57.80;;;;;;5113355;28;20891;-81
2021/01/24 08:19:44;;;;;;;5.28;1.80;;;28.10;57.80;;;;;;5113079;28;20898;-81
2021/01/24 08:22:12;;;;;;;8.13;2.05;;;28.10;58.20;;;;;;5113733;28;20420;-81
2021/01/24 08:24:41;;;;;;;6.13;2.07;;;28.10;57.30;;;;;;5113847;28;20371;-82
2021/01/24 08:27:10;;;;;;;6.40;2.10;;;28.10;57.90;;;;;;5113884;28;20862;-80
2021/01/24 08:29:38;;;;;;;6.20;2.42;;;28.10;57.10;;;;;;5113510;28;20880;-80
2021/01/24 08:32:08;;;;;;;9.43;2.08;;;28.00;57.70;;;;;;5095235;28;20782;-81
2021/01/24 08:34:36;;;;;;;7.55;2.13;;;27.90;58.60;;;;;;5095512;28;20721;-81
2021/01/24 08:37:05;;;;;;;4.38;1.90;;;27.70;57.30;;;;;;5112785;28;20861;-80
2021/01/24 08:39:33;;;;;;;5.83;2.10;;;27.60;56.90;;;;;;5112724;28;20860;-81
2021/01/24 08:42:03;;;;;;;3.90;1.90;;;27.60;55.90;;;;;;5112572;28;20977;-81
2021/01/24 08:44:31;;;;;;;8.48;2.55;;;27.60;56.50;;;;;;5112617;28;21972;-81
2021/01/24 08:47:07;;;;;;;7.50;2.20;;;27.50;56.30;;;;;;5112469;28;20899;-82
2021/01/24 08:49:35;;;;;;;6.45;2.40;;;27.40;56.60;;;;;;5112465;28;20861;-82
2021/01/24 08:52:04;;;;;;;8.30;2.30;;;27.30;56.60;;;;;;5112420;28;20909;-82
2021/01/24 08:54:40;;;;;;;7.07;2.30;;;27.20;57.10;;;;;;5094018;28;20752;-82
2021/01/24 08:57:13;;;;;;;8.32;2.30;;;27.10;56.80;;;;;;5112015;28;20826;-83
2021/01/24 09:00:01;;;;;;;6.82;2.42;;;27.00;57.80;;;;;;5112097;28;20367;-82
2021/01/24 09:02:39;;;;;;;8.98;2.72;;;26.90;56.70;;;;;;5112061;28;20826;-82
2021/01/24 09:05:15;;;;;;;11.52;2.83;;;26.90;55.80;;;;;;5112245;28;20815;-83
2021/01/24 09:07:52;;;;;;;8.82;2.85;;;26.90;54.60;;;;;;5112666;28;20893;-82
2021/01/24 09:10:28;;;;;;;7.10;2.67;;;26.90;54.60;;;;;;5112821;28;20810;-82
2021/01/24 09:13:05;;;;;;;7.68;2.58;;;26.90;54.60;;;;;;5094816;28;20779;-83
2021/01/24 09:15:33;;;;;;;8.57;2.63;;;26.70;54.80;;;;;;5112630;28;20910;-82
2021/01/24 09:18:02;;;;;;;10.48;2.83;;;26.70;56.00;;;;;;5112746;28;20846;-82
2021/01/24 09:20:30;;;;;;;10.57;2.95;;;26.60;55.30;;;;;;5112625;28;20868;-82
2021/01/24 09:22:57;;;;;;;6.93;2.70;;;26.50;55.10;;;;;;5094289;28;20840;-81
2021/01/24 09:25:25;;;;;;;7.65;2.88;;;26.50;55.30;;;;;;5112777;28;20870;-81
2021/01/24 09:27:52;;;;;;;6.13;2.50;;;26.40;54.50;;;;;;5112832;28;20857;-81
2021/01/24 09:30:53;;;;;;;;;;;;;;;;;;;;;
2021/01/24 09:36:48;;;;;;;5.60;2.58;;;26.30;54.30;;;;;;5113613;28;20354;-81
2021/01/24 09:39:20;;;;;;;6.68;2.80;;;26.20;54.70;;;;;;5093437;28;20749;-82
2021/01/24 09:41:52;;;;;;;7.00;3.17;;;26.10;54.10;;;;;;5111273;28;20737;-82
2021/01/24 09:44:23;;;;;;;7.93;2.70;;;26.10;53.30;;;;;;5093043;28;20796;-82
2021/01/24 09:46:54;;;;;;;7.63;3.17;;;26.00;54.30;;;;;;5091569;28;20900;-83
2021/01/24 09:49:25;;;;;;;6.30;2.80;;;26.00;54.40;;;;;;5111364;28;20797;-82
2021/01/24 09:51:56;;;;;;;7.30;2.90;;;25.90;53.70;;;;;;5093085;28;20841;-82
2021/01/24 09:54:28;;;;;;;7.90;3.05;;;25.90;53.60;;;;;;5111600;28;20382;-81
2021/01/24 09:57:00;;;;;;;8.30;2.83;;;25.90;52.90;;;;;;5111149;28;20860;-82
2021/01/24 09:59:35;;;;;;;6.77;3.20;;;25.90;53.30;;;;;;5111084;28;20845;-82
2021/01/24 10:02:06;;;;;;;7.95;2.90;;;25.90;52.50;;;;;;5111287;28;20845;-82
2021/01/24 10:04:36;;;;;;;9.73;2.85;;;25.90;51.80;;;;;;5111052;28;20404;-81
2021/01/24 10:07:04;;;;;;;8.40;3.20;;;25.90;51.30;;;;;;5111198;28;20390;-82
2021/01/24 10:09:36;;;;;;;7.13;2.78;;;25.90;51.00;;;;;;5111407;28;20830;-82
2021/01/24 10:12:07;;;;;;;8.07;3.78;;;25.90;50.30;;;;;;5111309;28;20834;-80
2021/01/24 10:14:40;;;;;;;8.07;3.10;;;25.90;51.30;;;;;;5110942;28;20933;-82
2021/01/24 10:17:12;;;;;;;7.00;2.95;;;25.80;51.50;;;;;;5111247;28;20888;-81
2021/01/24 10:19:46;;;;;;;6.30;3.08;;;25.90;52.30;;;;;;5111096;28;20896;-81
2021/01/24 10:22:17;;;;;;;7.83;3.20;;;25.80;51.00;;;;;;5111182;28;20840;-81
2021/01/24 10:24:46;;;;;;;7.43;3.00;;;25.90;51.50;;;;;;5090974;28;20721;-82
2021/01/24 10:27:13;;;;;;;8.10;2.97;;;25.90;50.80;;;;;;5111690;28;20390;-82
2021/01/24 10:29:42;;;;;;;7.20;3.00;;;25.80;51.00;;;;;;5115545;28;20853;-81
2021/01/24 10:32:09;;;;;;;7.88;3.03;;;25.90;52.00;;;;;;5096554;28;20916;-81
2021/01/24 10:34:36;;;;;;;8.30;3.17;;;25.90;51.30;;;;;;5097090;28;20853;-81
2021/01/24 10:37:04;;;;;;;7.78;3.00;;;25.90;51.20;;;;;;5115844;28;20367;-81
2021/01/24 10:39:31;;;;;;;12.98;6.53;;;25.90;51.20;;;;;;5114826;28;20846;-82
2021/01/24 10:41:58;;;;;;;7.87;3.40;;;25.80;51.20;;;;;;5114836;28;20857;-81
2021/01/24 10:44:25;;;;;;;7.93;3.30;;;25.80;51.40;;;;;;5114478;28;20905;-81
2021/01/24 10:46:52;;;;;;;5.78;2.60;;;25.80;51.30;;;;;;5114717;28;20888;-82
2021/01/24 10:49:20;;;;;;;7.68;3.10;;;25.80;51.30;;;;;;5114633;28;20377;-82
2021/01/24 10:51:53;;;;;;;6.78;2.67;;;25.80;51.10;;;;;;5114328;28;20876;-82
2021/01/24 10:54:21;;;;;;;6.97;2.70;;;25.90;51.60;;;;;;5097069;28;20888;-82
2021/01/24 10:56:48;;;;;;;7.30;2.85;;;25.80;51.20;;;;;;5096083;28;20926;-81
2021/01/24 10:59:15;;;;;;;8.47;2.80;;;25.80;51.40;;;;;;5114212;28;20696;-81
2021/01/24 11:01:43;;;;;;;7.10;2.50;;;25.80;51.70;;;;;;5096149;28;20910;-82
2021/01/24 11:04:10;;;;;;;6.13;2.67;;;25.80;51.80;;;;;;5096088;28;20389;-83
2021/01/24 11:06:37;;;;;;;5.38;2.75;;;25.80;51.70;;;;;;5114273;28;20910;-82
2021/01/24 11:09:05;;;;;;;5.93;2.50;;;25.70;52.30;;;;;;5114138;28;20876;-82
2021/01/24 11:11:35;;;;;;;8.20;2.53;;;25.70;52.30;;;;;;5114182;28;20842;-82
2021/01/24 11:14:02;;;;;;;5.93;2.75;;;25.70;52.60;;;;;;5095456;28;20873;-82
2021/01/24 11:16:32;;;;;;;8.73;2.63;;;25.70;53.30;;;;;;5114137;28;20834;-82
2021/01/24 11:19:01;;;;;;;7.47;2.72;;;25.70;53.40;;;;;;5114229;28;20910;-82
2021/01/24 11:21:29;;;;;;;8.33;2.73;;;25.70;54.20;;;;;;5114038;28;20883;-82
2021/01/24 11:23:56;;;;;;;9.10;2.65;;;25.70;54.10;;;;;;5114439;28;20830;-82
2021/01/24 11:26:24;;;;;;;8.40;2.70;;;25.70;54.40;;;;;;5113949;28;20872;-82
2021/01/24 11:28:51;;;;;;;5.20;2.53;;;25.70;54.40;;;;;;5095717;28;20759;-82
2021/01/24 11:31:18;;;;;;;7.68;2.50;;;25.70;54.40;;;;;;5113646;28;20829;-82
2021/01/24 11:33:46;;;;;;;6.47;2.50;;;25.60;54.80;;;;;;5113936;28;20799;-80
2021/01/24 11:36:14;;;;;;;6.82;2.97;;;25.60;55.10;;;;;;5113919;28;20373;-82
2021/01/24 11:38:44;;;;;;;8.63;2.77;;;25.50;55.70;;;;;;5095159;28;20860;-81
2021/01/24 11:41:12;;;;;;;6.27;2.50;;;25.50;56.40;;;;;;5113710;28;20896;-81
2021/01/24 11:43:39;;;;;;;12.88;2.80;;;25.50;56.60;;;;;;5113512;28;20830;-81
2021/01/24 11:46:07;;;;;;;6.55;2.50;;;25.40;56.80;;;;;;5113778;28;20990;-81
2021/01/24 11:48:34;;;;;;;10.50;2.80;;;25.40;56.90;;;;;;5113775;28;20860;-82
2021/01/24 11:51:02;;;;;;;6.38;2.53;;;25.40;57.30;;;;;;5095325;28;20854;-82
2021/01/24 11:53:29;;;;;;;5.03;2.40;;;25.40;57.20;;;;;;5113960;28;20842;-83
2021/01/24 11:55:56;;;;;;;8.27;2.88;;;25.30;57.30;;;;;;5113511;28;20857;-82
2021/01/24 11:58:26;;;;;;;7.80;3.00;;;25.30;57.30;;;;;;5113620;28;20856;-83
2021/01/24 12:00:54;;;;;;;6.22;2.47;;;25.30;57.10;;;;;;5113329;28;20837;-83
2021/01/24 12:03:24;;;;;;;7.32;2.72;;;25.20;57.70;;;;;;5113032;28;20879;-82
2021/01/24 12:05:51;;;;;;;9.73;2.57;;;25.20;58.00;;;;;;5113087;28;20869;-81
2021/01/24 12:08:19;;;;;;;8.38;2.75;;;25.10;58.60;;;;;;5112299;28;20911;-82
2021/01/24 12:10:46;;;;;;;8.05;2.70;;;24.90;59.10;;;;;;5113274;28;20841;-83
2021/01/24 12:13:13;;;;;;;9.18;3.05;;;24.90;59.60;;;;;;5113067;28;20371;-82
2021/01/24 12:15:40;;;;;;;7.20;3.10;;;24.70;59.50;;;;;;5113165;28;20825;-83
2021/01/24 12:18:08;;;;;;;9.70;2.72;;;24.70;60.30;;;;;;5094738;28;20782;-84
2021/01/24 12:20:35;;;;;;;6.68;2.35;;;24.60;60.70;;;;;;5112869;28;20910;-82
2021/01/24 12:23:02;;;;;;;11.18;2.88;;;24.50;60.60;;;;;;5113223;28;21210;-81
2021/01/24 12:25:30;;;;;;;7.13;2.75;;;24.40;61.10;;;;;;5113054;28;20855;-81
2021/01/24 12:27:57;;;;;;;6.13;2.40;;;24.40;61.50;;;;;;5094480;28;20849;-81
2021/01/24 12:30:25;;;;;;;7.03;2.60;;;24.40;62.10;;;;;;5112709;28;20865;-81
2021/01/24 12:32:52;;;;;;;9.07;2.78;;;24.30;62.80;;;;;;5112580;28;20370;-81
2021/01/24 12:35:20;;;;;;;9.52;3.15;;;24.30;63.20;;;;;;5094289;28;20888;-82
2021/01/24 12:37:47;;;;;;;7.75;2.70;;;24.20;63.70;;;;;;5112534;28;20970;-83
2021/01/24 12:40:14;;;;;;;7.82;2.97;;;24.10;64.50;;;;;;5112570;28;20367;-83
2021/01/24 12:42:42;;;;;;;10.93;2.80;;;24.10;65.50;;;;;;5112389;28;20892;-83
2021/01/24 12:45:10;;;;;;;9.90;3.15;;;24.00;66.30;;;;;;5112540;28;20386;-83
2021/01/24 12:47:38;;;;;;;13.18;2.85;;;24.00;67.30;;;;;;5111985;28;20888;-82
2021/01/24 12:50:11;;;;;;;6.77;2.53;;;23.90;68.40;;;;;;5093358;28;20853;-82
2021/01/24 12:52:38;;;;;;;10.18;3.05;;;23.90;69.10;;;;;;5112297;28;20775;-82
2021/01/24 12:55:06;;;;;;;13.93;3.28;;;23.90;70.00;;;;;;5112946;28;20801;-81
2021/01/24 12:57:33;;;;;;;13.93;3.10;;;23.80;71.30;;;;;;5112109;28;20886;-81
2021/01/24 13:00:00;;;;;;;10.82;3.20;;;23.80;73.30;;;;;;5111830;28;20391;-82
2021/01/24 13:02:27;;;;;;;12.57;3.47;;;23.80;74.40;;;;;;5112100;28;20894;-81
2021/01/24 13:04:55;;;;;;;12.68;3.28;;;23.70;75.90;;;;;;5111933;28;20875;-81
2021/01/24 13:07:22;;;;;;;16.52;3.50;;;23.60;76.90;;;;;;5111712;28;20873;-81